Es ist keine erhöhte Aufmerksamkeit aufgrund des Wetters notwendig.   -   Es gibt keine Warnungen.

Nearby METAR Reports

 

ENZV - Stavanger
aktuell: 17/02/2018 22:20
Light rain, overcast
Light rain, overcast
 Wind von SSO
Wind: SSO 31 km/h, Windböen: 52 km/h
Temperatur: 4°C
Wind Chill: -2°C
Taupunkt: 2°C
Luftfeuchte: 87%
Luftdruck: 1019 hPa
Zusammenfassung: sehr leichter Niederschlag
Clouds: geschlossene Wolkendecke
Visibility: 8 km
2018/02/17 21:20 ENZV 172120Z 16017G28KT 8000 -RA SCT011 BKN016 OVC023 04/02 Q1019
ENBR - Bergen
aktuell: 17/02/2018 22:20
Rain, mostly cloudy
Rain, mostly cloudy
 Wind von SSO
Wind: SSO 31 km/h
Temperatur: 3°C
Wind Chill: -3°C
Taupunkt: 1°C
Luftfeuchte: 87%
Luftdruck: 1017 hPa
Zusammenfassung: Regen
Clouds: stark bewölkt
Visibility: 8 km
2018/02/17 21:20 ENBR 172120Z 15017KT 8000 RA FEW004 SCT008 BKN012 03/01 Q1017 RMK WIND 1200FT 16030KT
 
ENHD - Haugesund
aktuell: 17/02/2018 22:20
Light rain, mostly cloudy
Light rain, mostly cloudy
 Wind von S
Wind: S 28 km/h, Windböen: 50 km/h
Temperatur: 3°C
Wind Chill: -3°C
Taupunkt: 2°C
Luftfeuchte: 93%
Luftdruck: 1018 hPa
Zusammenfassung: sehr leichter Niederschlag
Clouds: stark bewölkt
Visibility: 10 km
2018/02/17 21:20 ENHD 172120Z 17015G27KT 140V200 9999 -RA SCT005 BKN008 BKN011 03/02 Q1018
ENCN - Kristiansand
aktuell: 17/02/2018 22:20
geschlossene Wolkendecke
geschlossene Wolkendecke
 Wind von varies
Wind: varies 2 km/h
Temperatur: 0°C
Taupunkt: 0°C
Luftfeuchte: 100%
Luftdruck: 1023 hPa
Clouds: geschlossene Wolkendecke
Visibility: 10 km
2018/02/17 21:20 ENCN 172120Z VRB01KT 9999 OVC004 00/M00 Q1023
 
ENBO - Bodø
aktuell: 17/02/2018 22:20
stark bewölkt
stark bewölkt
 Wind von O
Wind: O 31 km/h
Temperatur: -2°C
Wind Chill: -9°C
Taupunkt: -7°C
Luftfeuchte: 69%
Luftdruck: 1020 hPa
Clouds: stark bewölkt
Visibility: 10 km
2018/02/17 21:20 ENBO 172120Z 08017KT 9999 FEW018 SCT025 BKN035 M02/M07 Q1020
ENKR - Kirkenes
aktuell: 17/02/2018 22:20
geschlossene Wolkendecke
geschlossene Wolkendecke
 Wind von WSW
Wind: WSW 6 km/h
Temperatur: -7°C
Taupunkt: -9°C
Luftfeuchte: 86%
Luftdruck: 1023 hPa
Clouds: geschlossene Wolkendecke
Visibility: 10 km
2018/02/17 21:20 ENKR 172120Z AUTO 24003KT 200V300 9999 OVC043/// M07/M09 Q1023 RMK WIND 731FT 24009KT
 
ENVA - Trondheim
aktuell: 17/02/2018 22:20
klar
klar
 Wind von O
Wind: O 6 km/h
Temperatur: -6°C
Taupunkt: -6°C
Luftfeuchte: 100%
Luftdruck: 1019 hPa
Zusammenfassung: klar
Visibility: greater than 10 km
2018/02/17 21:20 ENVA 172120Z 10003KT CAVOK M06/M06 Q1019 RMK WIND 670FT 13009KT
ENGM - Oslo
aktuell: 17/02/2018 22:20
Light snow, mist, overcast
Light snow, mist, overcast
 Wind von NNO
Wind: NNO 4 km/h
Temperatur: -5°C
Taupunkt: -6°C
Luftfeuchte: 93%
Luftdruck: 1022 hPa
Zusammenfassung: Light snow, mist
Clouds: geschlossene Wolkendecke
Visibility: 5 km
2018/02/17 21:20 ENGM 172120Z 02002KT 5000 -SN BR OVC003 M05/M06 Q1022 TEMPO 3000 BR OVC005